createdAt,value
2022-10-12T00:00:45.907Z,66.83
2022-10-12T00:02:47.223Z,66.97
2022-10-12T00:04:48.530Z,67.14
2022-10-12T00:06:49.841Z,67.56
2022-10-12T00:08:51.183Z,67.15
2022-10-12T00:10:52.442Z,66.70
2022-10-12T00:12:53.715Z,66.40
2022-10-12T00:14:55.054Z,66.32
2022-10-12T00:16:56.393Z,66.27
2022-10-12T00:18:57.718Z,66.08
2022-10-12T00:20:59.010Z,66.26
2022-10-12T00:23:00.302Z,66.51
2022-10-12T00:25:01.579Z,66.84
2022-10-12T00:27:02.896Z,66.34
2022-10-12T00:29:04.259Z,66.35
2022-10-12T00:31:05.532Z,66.03
2022-10-12T00:33:07.654Z,65.18
2022-10-12T00:35:08.922Z,64.88
2022-10-12T00:37:10.922Z,65.34
2022-10-12T00:39:12.266Z,65.87
2022-10-12T00:41:13.538Z,65.42
2022-10-12T00:43:14.962Z,65.47
2022-10-12T00:45:16.226Z,65.44
2022-10-12T00:47:17.530Z,65.66
2022-10-12T00:49:18.870Z,65.96
2022-10-12T00:51:20.266Z,64.79
2022-10-12T00:53:21.690Z,65.16
2022-10-12T00:55:22.994Z,65.51
2022-10-12T00:57:24.263Z,65.90
2022-10-12T00:59:25.530Z,65.97
2022-10-12T01:01:26.920Z,66.34
2022-10-12T01:03:28.198Z,66.50
2022-10-12T01:05:29.470Z,66.68
2022-10-12T01:07:30.806Z,66.08
2022-10-12T01:09:32.082Z,66.20
2022-10-12T01:11:33.349Z,66.39
2022-10-12T01:13:34.675Z,65.92
2022-10-12T01:15:35.983Z,65.53
2022-10-12T01:17:37.796Z,66.38
2022-10-12T01:19:39.254Z,66.09
2022-10-12T01:21:40.555Z,66.20
2022-10-12T01:23:42.218Z,65.72
2022-10-12T01:25:43.489Z,66.20
2022-10-12T01:27:44.804Z,66.13
2022-10-12T01:29:46.082Z,66.56
2022-10-12T01:31:47.405Z,66.83
2022-10-12T01:33:48.674Z,67.10
2022-10-12T01:35:50.030Z,67.90
2022-10-12T01:37:51.319Z,68.30
2022-10-12T01:39:52.805Z,68.36
2022-10-12T01:41:54.139Z,68.34
2022-10-12T01:43:55.453Z,69.09
2022-10-12T01:45:56.735Z,69.12
2022-10-12T01:47:58.057Z,69.13
2022-10-12T01:49:59.383Z,69.06
2022-10-12T01:52:00.706Z,69.77
2022-10-12T01:54:02.000Z,69.74
2022-10-12T01:56:03.311Z,70.24
2022-10-12T01:58:04.741Z,70.52
2022-10-12T02:00:06.011Z,70.00
2022-10-12T02:02:07.338Z,70.08
2022-10-12T02:04:08.618Z,70.65
2022-10-12T02:06:09.912Z,70.67
2022-10-12T02:08:11.767Z,70.64
2022-10-12T02:10:13.498Z,70.87
2022-10-12T02:12:14.759Z,70.94
2022-10-12T02:14:16.102Z,70.67
2022-10-12T02:16:17.379Z,70.75
2022-10-12T02:18:18.727Z,71.16
2022-10-12T02:20:20.087Z,71.25
2022-10-12T02:22:21.369Z,70.54
2022-10-12T02:24:22.662Z,70.98
2022-10-12T02:26:23.987Z,70.89
2022-10-12T02:28:25.391Z,70.78
2022-10-12T02:30:26.700Z,70.80
2022-10-12T02:32:28.790Z,71.27
2022-10-12T02:34:30.114Z,70.84
2022-10-12T02:36:31.386Z,71.06
2022-10-12T02:38:32.798Z,71.00
2022-10-12T02:40:34.088Z,71.20
2022-10-12T02:42:58.446Z,71.29
2022-10-12T02:44:56.755Z,71.30
2022-10-12T02:46:58.043Z,70.98
2022-10-12T02:48:59.329Z,71.29
2022-10-12T02:51:00.617Z,71.33
2022-10-12T02:53:01.890Z,71.54
2022-10-12T02:55:03.175Z,71.87
2022-10-12T02:57:05.828Z,71.60
2022-10-12T02:59:07.102Z,71.82
2022-10-12T03:01:08.618Z,71.21
2022-10-12T03:03:09.995Z,72.02
2022-10-12T03:05:11.267Z,71.57
2022-10-12T03:07:12.600Z,71.58
2022-10-12T03:09:14.250Z,72.00
2022-10-12T03:11:15.594Z,71.93
2022-10-12T03:13:17.838Z,71.47
2022-10-12T03:15:19.109Z,71.55
2022-10-12T03:17:20.430Z,71.92
2022-10-12T03:19:21.743Z,71.45
2022-10-12T03:21:23.037Z,71.81
2022-10-12T03:23:24.346Z,71.90
2022-10-12T03:25:25.634Z,71.75
2022-10-12T03:27:26.907Z,71.79
2022-10-12T03:29:28.238Z,71.68
2022-10-12T03:31:29.535Z,71.77
2022-10-12T03:33:30.804Z,71.91
2022-10-12T03:35:32.857Z,72.08
2022-10-12T03:37:34.147Z,71.81
2022-10-12T03:39:35.785Z,71.46
2022-10-12T03:41:37.124Z,71.69
2022-10-12T03:43:38.399Z,71.67
2022-10-12T03:45:39.683Z,71.61
2022-10-12T03:47:41.368Z,72.18
2022-10-12T03:49:42.802Z,72.03
2022-10-12T03:51:44.082Z,71.69
2022-10-12T03:53:45.783Z,71.84
2022-10-12T03:55:47.190Z,71.79
2022-10-12T03:57:48.450Z,71.60
2022-10-12T03:59:49.783Z,71.67
2022-10-12T04:01:51.115Z,71.38
2022-10-12T04:03:52.414Z,71.56
2022-10-12T04:05:54.909Z,71.51
2022-10-12T04:07:56.186Z,71.32
2022-10-12T04:09:57.475Z,71.51
2022-10-12T04:11:58.747Z,71.49
2022-10-12T04:14:00.226Z,71.86
2022-10-12T04:16:01.554Z,71.80
2022-10-12T04:18:02.823Z,71.64
2022-10-12T04:20:04.423Z,71.95
2022-10-12T04:22:05.740Z,72.11
2022-10-12T04:24:07.232Z,72.13
2022-10-12T04:26:08.550Z,71.46
2022-10-12T04:28:09.925Z,71.83
2022-10-12T04:30:11.325Z,72.22
2022-10-12T04:32:12.933Z,72.22
2022-10-12T04:34:14.290Z,72.31
2022-10-12T04:36:15.556Z,72.07
2022-10-12T04:38:16.878Z,72.11
2022-10-12T04:40:18.906Z,71.99
2022-10-12T04:42:20.201Z,72.14
2022-10-12T04:44:21.535Z,72.12
2022-10-12T04:46:22.904Z,71.79
2022-10-12T04:48:24.186Z,71.86
2022-10-12T04:50:29.823Z,72.02
2022-10-12T04:52:31.503Z,71.61
2022-10-12T04:54:32.898Z,71.95
2022-10-12T04:56:34.210Z,71.83
2022-10-12T04:58:35.602Z,72.04
2022-10-12T05:00:36.898Z,71.79
2022-10-12T05:02:38.238Z,71.73
2022-10-12T05:04:39.525Z,71.79
2022-10-12T05:06:40.803Z,71.87
2022-10-12T05:08:42.111Z,72.02
2022-10-12T05:10:43.403Z,71.98
2022-10-12T05:12:44.853Z,71.91
2022-10-12T05:14:46.142Z,71.88
2022-10-12T05:16:47.834Z,71.91
2022-10-12T05:18:49.146Z,71.67
2022-10-12T05:20:53.328Z,72.00
2022-10-12T05:22:58.175Z,71.94
2022-10-12T05:24:59.597Z,72.17
2022-10-12T05:27:00.965Z,72.24
2022-10-12T05:29:02.386Z,71.89
2022-10-12T05:31:03.745Z,72.03
2022-10-12T05:33:05.041Z,71.85
2022-10-12T05:35:06.974Z,72.16
2022-10-12T05:37:08.282Z,71.80
2022-10-12T05:39:09.567Z,71.75
2022-10-12T05:41:10.922Z,71.67
2022-10-12T05:43:12.212Z,71.79
2022-10-12T05:45:13.973Z,71.85
2022-10-12T05:47:15.359Z,72.06
2022-10-12T05:49:16.653Z,71.96
2022-10-12T05:51:17.985Z,71.50
2022-10-12T05:53:19.998Z,72.17
2022-10-12T05:55:21.338Z,71.95
2022-10-12T05:57:23.005Z,71.95
2022-10-12T05:59:25.011Z,71.58
2022-10-12T06:01:26.278Z,71.64
2022-10-12T06:03:30.425Z,71.58
2022-10-12T06:05:34.023Z,71.80
2022-10-12T06:07:35.283Z,72.03
2022-10-12T06:09:39.071Z,71.91
2022-10-12T06:11:40.362Z,71.79
2022-10-12T06:13:41.619Z,71.52
2022-10-12T06:15:42.885Z,71.66
2022-10-12T06:17:44.215Z,71.91
2022-10-12T06:19:45.517Z,71.09
2022-10-12T06:21:46.786Z,71.33
2022-10-12T06:23:48.190Z,71.23
2022-10-12T06:25:49.466Z,71.23
2022-10-12T06:27:50.739Z,71.72
2022-10-12T06:29:52.131Z,71.57
2022-10-12T06:31:54.225Z,71.65
2022-10-12T06:33:55.538Z,71.77
2022-10-12T06:35:56.899Z,71.93
2022-10-12T06:37:58.197Z,72.03
2022-10-12T06:39:59.466Z,62.18
2022-10-12T06:42:00.798Z,53.16
2022-10-12T06:44:02.133Z,51.23
2022-10-12T06:46:03.414Z,51.54
2022-10-12T06:48:04.701Z,51.89
2022-10-12T06:50:06.041Z,56.02
2022-10-12T06:52:07.329Z,57.18
2022-10-12T06:54:08.626Z,57.43
2022-10-12T06:56:10.039Z,58.01
2022-10-12T06:58:11.373Z,58.68
2022-10-12T07:00:13.353Z,59.61
2022-10-12T07:02:14.711Z,60.16
2022-10-12T07:04:15.987Z,60.50
2022-10-12T07:06:17.309Z,61.01
2022-10-12T07:08:18.663Z,61.37
2022-10-12T07:10:20.022Z,61.82
2022-10-12T07:12:21.358Z,62.35
2022-10-12T07:14:22.622Z,62.80
2022-10-12T07:16:23.922Z,63.07
2022-10-12T07:18:25.239Z,63.24
2022-10-12T07:20:26.536Z,63.78
2022-10-12T07:22:27.870Z,64.15
2022-10-12T07:24:36.220Z,64.37
2022-10-12T07:26:37.524Z,64.47
2022-10-12T07:28:38.937Z,65.00
2022-10-12T07:30:40.298Z,64.39
2022-10-12T07:32:42.509Z,64.54
2022-10-12T07:34:44.798Z,64.51
2022-10-12T07:36:59.035Z,64.66
2022-10-12T07:39:00.976Z,64.75
2022-10-12T07:41:02.291Z,65.49
2022-10-12T07:43:15.818Z,65.17
2022-10-12T07:45:17.739Z,65.54
2022-10-12T07:47:19.459Z,65.86
2022-10-12T07:49:20.771Z,65.92
2022-10-12T07:51:22.104Z,66.27
2022-10-12T07:53:23.406Z,66.40
2022-10-12T07:55:24.735Z,66.21
2022-10-12T07:57:26.137Z,66.79
2022-10-12T07:59:27.421Z,66.57
2022-10-12T08:01:29.860Z,67.05
2022-10-12T08:03:31.174Z,66.68
2022-10-12T08:05:32.451Z,66.45
2022-10-12T08:07:33.746Z,65.79
2022-10-12T08:09:37.979Z,66.72
2022-10-12T08:11:39.388Z,66.14
2022-10-12T08:13:40.692Z,66.25
2022-10-12T08:15:41.972Z,66.45
2022-10-12T08:17:43.234Z,66.20
2022-10-12T08:19:44.511Z,66.48
2022-10-12T08:21:45.845Z,66.26
2022-10-12T08:23:47.170Z,66.50
2022-10-12T08:25:48.702Z,66.50
2022-10-12T08:27:49.995Z,66.60
2022-10-12T08:29:51.267Z,66.63
2022-10-12T08:31:54.423Z,67.01
2022-10-12T08:33:55.790Z,66.69
2022-10-12T08:35:57.066Z,66.81
2022-10-12T08:37:58.425Z,67.01
2022-10-12T08:40:03.266Z,66.87
2022-10-12T08:42:05.074Z,66.74
2022-10-12T08:44:06.363Z,67.27
2022-10-12T08:46:10.397Z,67.27
2022-10-12T08:48:11.675Z,66.86
2022-10-12T08:50:12.942Z,66.88
2022-10-12T08:52:14.259Z,66.85
2022-10-12T08:54:15.568Z,66.66
2022-10-12T08:56:17.220Z,66.95
2022-10-12T08:58:20.619Z,66.66
2022-10-12T09:00:22.036Z,66.59
2022-10-12T09:02:23.383Z,66.22
2022-10-12T09:04:24.714Z,66.71
2022-10-12T09:06:25.982Z,66.56
2022-10-12T09:08:27.287Z,66.47
2022-10-12T09:10:28.623Z,66.71
2022-10-12T09:12:29.907Z,66.57
2022-10-12T09:14:31.223Z,66.89
2022-10-12T09:16:32.528Z,66.77
2022-10-12T09:18:38.224Z,67.00
2022-10-12T09:20:41.885Z,66.71
2022-10-12T09:22:43.616Z,66.66
2022-10-12T09:24:45.222Z,66.86
2022-10-12T09:26:46.538Z,67.30
2022-10-12T09:28:47.950Z,66.96
2022-10-12T09:30:50.235Z,66.65
2022-10-12T09:32:51.506Z,66.88
2022-10-12T09:34:52.823Z,66.94
2022-10-12T09:36:55.620Z,67.32
2022-10-12T09:38:56.922Z,67.15
2022-10-12T09:40:58.198Z,66.44
2022-10-12T09:42:59.453Z,64.52
2022-10-12T09:45:00.767Z,64.86
2022-10-12T09:49:03.337Z,66.48
2022-10-12T09:51:05.539Z,65.37
2022-10-12T09:53:06.801Z,63.62
2022-10-12T09:55:08.198Z,64.18
2022-10-12T09:57:09.513Z,64.80
2022-10-12T09:59:10.845Z,64.95
2022-10-12T10:01:12.179Z,63.32
2022-10-12T10:03:13.779Z,63.81
2022-10-12T10:05:15.055Z,63.01
2022-10-12T10:07:16.355Z,63.53
2022-10-12T10:09:17.627Z,62.92
2022-10-12T10:11:18.886Z,63.22
2022-10-12T10:13:20.211Z,63.71
2022-10-12T10:15:21.791Z,64.00
2022-10-12T10:17:23.071Z,64.13
2022-10-12T10:19:26.029Z,64.60
2022-10-12T10:21:27.306Z,65.25
2022-10-12T10:23:28.704Z,65.23
2022-10-12T10:25:30.027Z,65.26
2022-10-12T10:27:31.550Z,65.57
2022-10-12T10:29:33.267Z,65.95
2022-10-12T10:31:35.632Z,67.13
2022-10-12T10:33:36.902Z,65.30
2022-10-12T10:35:38.201Z,65.65
2022-10-12T10:37:39.478Z,65.76
2022-10-12T10:39:40.753Z,65.39
2022-10-12T10:41:42.045Z,65.73
2022-10-12T10:43:43.355Z,65.60
2022-10-12T10:47:47.134Z,65.83
2022-10-12T10:49:49.629Z,66.08
2022-10-12T10:51:51.468Z,66.63
2022-10-12T10:53:52.773Z,67.02
2022-10-12T10:55:54.048Z,67.20
2022-10-12T10:57:55.371Z,66.95
2022-10-12T11:00:02.260Z,66.92
2022-10-12T11:02:10.915Z,66.87
2022-10-12T11:04:12.231Z,66.81
2022-10-12T11:06:13.507Z,66.75
2022-10-12T11:08:15.361Z,66.87
2022-10-12T11:10:16.679Z,66.87
2022-10-12T11:12:18.001Z,66.72
2022-10-12T11:14:19.266Z,66.56
2022-10-12T11:16:20.536Z,66.73
2022-10-12T11:18:22.974Z,66.45
2022-10-12T11:20:24.256Z,66.58
2022-10-12T11:22:25.539Z,66.54
2022-10-12T11:24:26.846Z,66.59
2022-10-12T11:26:28.188Z,66.68
2022-10-12T11:28:31.168Z,66.40
2022-10-12T11:30:32.494Z,65.46
2022-10-12T11:32:33.784Z,66.23
2022-10-12T11:34:35.043Z,55.34
2022-10-12T11:36:36.310Z,54.98
2022-10-12T11:38:37.587Z,52.88
2022-10-12T11:41:02.446Z,58.23
2022-10-12T11:43:00.131Z,58.70
2022-10-12T11:45:01.505Z,56.78
2022-10-12T11:47:02.826Z,58.17
2022-10-12T11:49:04.147Z,58.41
2022-10-12T11:51:05.528Z,60.26
2022-10-12T11:53:06.865Z,58.98
2022-10-12T11:55:10.945Z,60.51
2022-10-12T11:57:12.299Z,61.51
2022-10-12T11:59:14.144Z,61.66
2022-10-12T12:01:15.479Z,62.04
2022-10-12T12:03:16.873Z,62.10
2022-10-12T12:05:18.290Z,61.91
2022-10-12T12:07:19.572Z,62.47
2022-10-12T12:09:20.920Z,62.96
2022-10-12T12:11:22.284Z,62.47
2022-10-12T12:13:23.700Z,62.70
2022-10-12T12:15:24.999Z,62.09
2022-10-12T12:17:30.907Z,61.45
2022-10-12T12:19:33.362Z,61.47
2022-10-12T12:21:34.626Z,61.19
2022-10-12T12:23:35.914Z,61.46
2022-10-12T12:25:37.269Z,61.82
2022-10-12T12:27:38.566Z,61.49
2022-10-12T12:29:40.274Z,61.51
2022-10-12T12:31:41.754Z,61.71
2022-10-12T12:33:43.088Z,62.02
2022-10-12T12:35:44.358Z,62.07
2022-10-12T12:37:45.644Z,61.87
2022-10-12T12:39:46.935Z,61.84
2022-10-12T12:41:53.344Z,61.85
2022-10-12T12:43:56.728Z,61.97
2022-10-12T12:45:58.058Z,62.55
2022-10-12T12:47:59.400Z,63.25
2022-10-12T12:50:00.868Z,63.42
2022-10-12T12:52:02.294Z,63.73
2022-10-12T12:54:03.553Z,63.96
2022-10-12T12:56:04.830Z,63.92
2022-10-12T12:58:06.159Z,64.04
2022-10-12T13:00:08.442Z,64.12
2022-10-12T13:02:09.980Z,63.90
2022-10-12T13:04:11.333Z,64.09
2022-10-12T13:06:12.646Z,64.27
2022-10-12T13:08:13.937Z,64.45
2022-10-12T13:10:15.200Z,64.64
2022-10-12T13:12:16.673Z,64.82
2022-10-12T13:14:17.947Z,64.70
2022-10-12T13:16:36.502Z,64.27
2022-10-12T13:18:48.860Z,64.55
2022-10-12T13:20:50.638Z,64.54
2022-10-12T13:22:51.913Z,64.80
2022-10-12T13:24:53.181Z,64.79
2022-10-12T13:26:54.525Z,65.05
2022-10-12T13:28:55.882Z,65.37
2022-10-12T13:30:57.215Z,66.00
2022-10-12T13:32:58.701Z,65.91
2022-10-12T13:35:00.015Z,66.28
2022-10-12T13:37:01.330Z,66.50
2022-10-12T13:39:02.632Z,66.88
2022-10-12T13:41:03.938Z,66.85
2022-10-12T13:43:05.239Z,66.77
2022-10-12T13:45:06.526Z,66.55
2022-10-12T13:47:10.381Z,67.01
2022-10-12T13:49:11.846Z,66.92
2022-10-12T13:51:13.110Z,67.39
2022-10-12T13:53:14.419Z,66.67
2022-10-12T13:55:15.734Z,66.27
2022-10-12T13:57:17.032Z,66.32
2022-10-12T13:59:19.175Z,65.82
2022-10-12T14:03:21.833Z,65.02
2022-10-12T14:05:23.093Z,64.25
2022-10-12T14:07:24.361Z,64.71
2022-10-12T14:09:25.631Z,65.13
2022-10-12T14:11:27.048Z,65.76
2022-10-12T14:13:28.396Z,66.00
2022-10-12T14:15:29.686Z,66.16
2022-10-12T14:17:30.963Z,65.33
2022-10-12T14:19:32.678Z,65.57
2022-10-12T14:21:36.816Z,64.78
2022-10-12T14:23:38.288Z,64.74
2022-10-12T14:25:39.566Z,64.29
2022-10-12T14:27:40.903Z,64.55
2022-10-12T14:29:42.587Z,64.88
2022-10-12T14:31:43.865Z,64.33
2022-10-12T14:33:45.159Z,65.29
2022-10-12T14:35:49.681Z,65.32
2022-10-12T14:37:51.028Z,65.82
2022-10-12T14:39:59.283Z,65.20
2022-10-12T14:42:00.779Z,65.91
2022-10-12T14:44:02.064Z,65.60
2022-10-12T14:46:03.354Z,66.32
2022-10-12T14:48:05.554Z,66.23
2022-10-12T14:50:08.317Z,65.58
2022-10-12T14:52:09.663Z,66.00
2022-10-12T14:54:11.405Z,66.53
2022-10-12T14:56:15.390Z,66.67
2022-10-12T14:58:16.709Z,66.54
2022-10-12T15:00:17.992Z,66.29
2022-10-12T15:02:19.311Z,66.10
2022-10-12T15:04:20.590Z,66.80
2022-10-12T15:06:21.903Z,66.48
2022-10-12T15:08:23.204Z,67.03
2022-10-12T15:10:24.523Z,67.09
2022-10-12T15:12:25.874Z,67.26
2022-10-12T15:14:27.174Z,66.81
2022-10-12T15:16:29.528Z,65.75
2022-10-12T15:18:30.824Z,66.14
2022-10-12T15:20:32.174Z,66.28
2022-10-12T15:22:33.471Z,67.31
2022-10-12T15:24:35.685Z,67.24
2022-10-12T15:26:42.301Z,67.39
2022-10-12T15:28:44.046Z,66.87
2022-10-12T15:31:04.589Z,66.64
2022-10-12T15:33:07.282Z,66.08
2022-10-12T15:35:08.566Z,66.36
2022-10-12T15:37:09.850Z,65.76
2022-10-12T15:39:11.167Z,65.89
2022-10-12T15:41:12.614Z,66.79
2022-10-12T15:43:13.934Z,66.13
2022-10-12T15:45:15.372Z,66.50
2022-10-12T15:47:16.676Z,66.97
2022-10-12T15:49:24.134Z,67.16
2022-10-12T15:51:25.432Z,66.62
2022-10-12T15:53:27.308Z,67.55
2022-10-12T15:55:28.649Z,67.64
2022-10-12T15:57:30.096Z,67.43
2022-10-12T15:59:31.377Z,68.06
2022-10-12T16:01:32.693Z,67.25
2022-10-12T16:03:34.006Z,67.32
2022-10-12T16:05:38.230Z,67.36
2022-10-12T16:09:40.784Z,67.16
2022-10-12T16:11:42.129Z,66.66
2022-10-12T16:13:51.049Z,66.65
2022-10-12T16:15:55.580Z,66.52
2022-10-12T16:17:56.848Z,66.72
2022-10-12T16:19:58.108Z,66.61
2022-10-12T16:22:01.122Z,66.80
2022-10-12T16:24:03.659Z,67.16
2022-10-12T16:26:05.078Z,66.78
2022-10-12T16:28:06.340Z,66.75
2022-10-12T16:30:07.618Z,65.81
2022-10-12T16:32:09.089Z,66.63
2022-10-12T16:34:10.365Z,66.01
2022-10-12T16:36:11.707Z,66.19
2022-10-12T16:38:14.733Z,65.83
2022-10-12T16:40:16.062Z,65.98
2022-10-12T16:42:17.454Z,66.20
2022-10-12T16:44:18.754Z,66.73
2022-10-12T16:46:20.033Z,66.38
2022-10-12T16:48:24.548Z,66.23
2022-10-12T16:50:25.904Z,66.54
2022-10-12T16:52:27.245Z,66.57
2022-10-12T16:54:34.666Z,66.65
2022-10-12T16:56:39.245Z,66.22
2022-10-12T16:58:41.329Z,66.12
2022-10-12T17:00:43.404Z,66.66
2022-10-12T17:02:44.756Z,66.52
2022-10-12T17:04:46.198Z,65.95
2022-10-12T17:06:47.485Z,65.93
2022-10-12T17:08:48.811Z,66.72
2022-10-12T17:10:50.325Z,66.33
2022-10-12T17:12:54.382Z,65.94
2022-10-12T17:14:55.651Z,65.68
2022-10-12T17:16:57.532Z,66.41
2022-10-12T17:18:59.730Z,66.73
2022-10-12T17:21:01.227Z,66.63
2022-10-12T17:23:02.518Z,65.83
2022-10-12T17:25:06.550Z,66.27
2022-10-12T17:27:07.867Z,66.21
2022-10-12T17:29:09.155Z,66.32
2022-10-12T17:31:11.820Z,66.20
2022-10-12T17:33:13.326Z,65.98
2022-10-12T17:35:14.601Z,65.98
2022-10-12T17:37:15.954Z,66.26
2022-10-12T17:39:17.257Z,65.75
2022-10-12T17:41:18.565Z,65.32
2022-10-12T17:43:26.741Z,66.12
2022-10-12T17:45:28.157Z,66.04
2022-10-12T17:47:29.466Z,66.37
2022-10-12T17:49:30.758Z,66.72
2022-10-12T17:51:32.085Z,66.47
2022-10-12T17:53:33.737Z,67.29
2022-10-12T17:55:49.389Z,66.04
2022-10-12T17:57:50.669Z,66.53
2022-10-12T17:59:51.988Z,66.70
2022-10-12T18:01:53.407Z,67.70
2022-10-12T18:03:55.454Z,67.39
2022-10-12T18:05:59.664Z,66.51
2022-10-12T18:08:00.939Z,66.18
2022-10-12T18:10:02.210Z,66.33
2022-10-12T18:12:03.486Z,67.13
2022-10-12T18:14:07.762Z,66.89
2022-10-12T18:16:12.296Z,66.54
2022-10-12T18:18:15.373Z,66.95
2022-10-12T18:20:18.472Z,67.31
2022-10-12T18:22:19.912Z,67.72
2022-10-12T18:24:23.202Z,67.16
2022-10-12T18:26:27.711Z,67.76
2022-10-12T18:28:29.106Z,66.71
2022-10-12T18:30:30.411Z,66.43
2022-10-12T18:32:31.723Z,65.71
2022-10-12T18:34:42.225Z,65.49
2022-10-12T18:36:43.711Z,67.03
2022-10-12T18:38:45.147Z,66.91
2022-10-12T18:40:47.581Z,66.19
2022-10-12T18:42:51.791Z,66.87
2022-10-12T18:44:55.773Z,67.34
2022-10-12T18:47:00.146Z,67.14
2022-10-12T18:49:02.808Z,66.98
2022-10-12T18:51:04.345Z,67.29
2022-10-12T18:53:05.675Z,67.16
2022-10-12T18:55:09.952Z,67.23
2022-10-12T18:57:11.209Z,66.90
2022-10-12T18:59:12.567Z,67.37
2022-10-12T19:01:14.890Z,67.50
2022-10-12T19:03:16.200Z,66.21
2022-10-12T19:05:17.503Z,66.97
2022-10-12T19:07:18.998Z,66.91
2022-10-12T19:09:20.461Z,66.83
2022-10-12T19:11:21.727Z,66.71
2022-10-12T19:13:23.023Z,66.82
2022-10-12T19:15:28.719Z,66.66
2022-10-12T19:17:30.015Z,67.01
2022-10-12T19:19:32.232Z,66.66
2022-10-12T19:21:34.285Z,66.77
2022-10-12T19:23:35.558Z,67.09
2022-10-12T19:25:36.835Z,67.08
2022-10-12T19:27:38.097Z,66.82
2022-10-12T19:29:42.395Z,66.37
2022-10-12T19:31:46.863Z,66.36
2022-10-12T19:33:51.354Z,65.83
2022-10-12T19:35:52.658Z,66.57
2022-10-12T19:37:54.451Z,66.49
2022-10-12T19:39:55.938Z,66.82
2022-10-12T19:41:57.223Z,67.01
2022-10-12T19:43:58.518Z,67.77
2022-10-12T19:45:59.799Z,67.38
2022-10-12T19:48:01.074Z,65.97
2022-10-12T19:50:02.418Z,66.27
2022-10-12T19:52:03.752Z,67.00
2022-10-12T19:54:05.187Z,67.07
2022-10-12T19:56:06.479Z,66.85
2022-10-12T19:58:07.764Z,66.36
2022-10-12T20:00:09.078Z,66.84
2022-10-12T20:02:10.510Z,67.07
2022-10-12T20:04:12.080Z,67.34
2022-10-12T20:06:13.417Z,66.69
2022-10-12T20:08:14.706Z,67.33
2022-10-12T20:10:16.004Z,67.54
2022-10-12T20:12:17.413Z,67.66
2022-10-12T20:14:18.868Z,67.34
2022-10-12T20:16:20.194Z,67.23
2022-10-12T20:18:21.644Z,67.47
2022-10-12T20:20:22.976Z,67.29
2022-10-12T20:22:24.242Z,67.50
2022-10-12T20:24:25.655Z,67.37
2022-10-12T20:26:26.972Z,67.23
2022-10-12T20:28:28.257Z,67.08
2022-10-12T20:30:29.644Z,67.11
2022-10-12T20:32:30.918Z,67.70
2022-10-12T20:34:32.182Z,66.76
2022-10-12T20:36:33.526Z,65.96
2022-10-12T20:38:34.854Z,66.79
2022-10-12T20:40:36.126Z,66.76
2022-10-12T20:42:37.410Z,66.44
2022-10-12T20:44:38.735Z,66.79
2022-10-12T20:46:40.174Z,66.82
2022-10-12T20:48:41.492Z,66.38
2022-10-12T20:50:42.754Z,66.76
2022-10-12T20:52:44.026Z,67.14
2022-10-12T20:54:45.328Z,67.36
2022-10-12T20:56:52.241Z,67.44
2022-10-12T20:58:54.279Z,67.39
2022-10-12T21:00:55.597Z,67.54
2022-10-12T21:02:56.874Z,67.44
2022-10-12T21:05:00.938Z,67.57
2022-10-12T21:07:02.207Z,67.74
2022-10-12T21:09:03.485Z,67.07
2022-10-12T21:11:04.784Z,67.49
2022-10-12T21:13:06.067Z,67.35
2022-10-12T21:15:07.351Z,67.87
2022-10-12T21:17:08.843Z,67.31
2022-10-12T21:19:10.133Z,67.47
2022-10-12T21:21:11.630Z,67.52
2022-10-12T21:23:13.020Z,67.19
2022-10-12T21:25:14.300Z,67.67
2022-10-12T21:27:15.574Z,67.98
2022-10-12T21:29:16.946Z,68.40
2022-10-12T21:31:18.207Z,67.46
2022-10-12T21:33:19.699Z,67.95
2022-10-12T21:35:21.015Z,67.98
2022-10-12T21:37:22.307Z,68.26
2022-10-12T21:39:23.694Z,67.94
2022-10-12T21:41:25.977Z,67.78
2022-10-12T21:43:27.291Z,67.66
2022-10-12T21:45:28.609Z,67.47
2022-10-12T21:47:29.949Z,67.72
2022-10-12T21:49:31.250Z,67.81
2022-10-12T21:51:32.519Z,67.52
2022-10-12T21:53:34.084Z,56.12
2022-10-12T21:55:35.383Z,55.49
2022-10-12T21:57:37.317Z,62.72
2022-10-12T21:59:39.001Z,62.84
2022-10-12T22:01:40.396Z,63.25
2022-10-12T22:03:41.671Z,63.51
2022-10-12T22:05:42.951Z,64.54
2022-10-12T22:07:44.257Z,65.06
2022-10-12T22:09:45.571Z,65.36
2022-10-12T22:11:47.046Z,65.82
2022-10-12T22:13:48.326Z,66.49
2022-10-12T22:15:49.608Z,66.49
2022-10-12T22:17:50.902Z,66.95
2022-10-12T22:19:52.206Z,67.43
2022-10-12T22:21:53.511Z,67.54
2022-10-12T22:23:54.802Z,68.25
2022-10-12T22:25:56.117Z,68.45
2022-10-12T22:27:57.407Z,68.55
2022-10-12T22:30:00.398Z,69.08
2022-10-12T22:32:01.696Z,68.86
2022-10-12T22:34:02.974Z,69.14
2022-10-12T22:36:04.360Z,69.24
2022-10-12T22:38:05.642Z,69.41
2022-10-12T22:40:06.966Z,69.30
2022-10-12T22:42:08.239Z,69.20
2022-10-12T22:44:09.613Z,69.44
2022-10-12T22:46:10.954Z,69.61
2022-10-12T22:48:12.243Z,70.21
2022-10-12T22:50:13.533Z,70.15
2022-10-12T22:52:14.814Z,70.08
2022-10-12T22:54:16.148Z,70.34
2022-10-12T22:56:17.622Z,70.74
2022-10-12T22:58:18.890Z,70.59
2022-10-12T23:00:20.166Z,70.24
2022-10-12T23:02:21.762Z,71.22
2022-10-12T23:04:23.139Z,71.51
2022-10-12T23:06:24.402Z,71.05
2022-10-12T23:08:25.748Z,71.89
2022-10-12T23:10:27.018Z,71.80
2022-10-12T23:12:28.298Z,71.99
2022-10-12T23:14:29.655Z,72.17
2022-10-12T23:16:30.966Z,73.16
2022-10-12T23:18:33.439Z,72.78
2022-10-12T23:20:34.755Z,72.54
2022-10-12T23:22:36.038Z,72.58
2022-10-12T23:24:37.322Z,72.85
2022-10-12T23:26:38.635Z,72.78
2022-10-12T23:28:39.969Z,72.94
2022-10-12T23:30:41.298Z,73.06
2022-10-12T23:32:42.582Z,73.27
2022-10-12T23:34:43.859Z,73.56
2022-10-12T23:36:45.174Z,73.55
2022-10-12T23:38:46.494Z,72.91
2022-10-12T23:40:47.827Z,73.38
2022-10-12T23:42:49.205Z,72.96
2022-10-12T23:44:50.499Z,73.16
2022-10-12T23:46:51.827Z,73.12
2022-10-12T23:48:53.107Z,72.90
2022-10-12T23:50:54.591Z,73.03
2022-10-12T23:52:55.886Z,72.93
2022-10-12T23:54:57.154Z,73.40
2022-10-12T23:56:58.414Z,73.40
2022-10-12T23:59:00.640Z,73.84
